createdAt,value
2024-03-13T00:00:44.324Z,74.47
2024-03-13T00:03:11.207Z,74.59
2024-03-13T00:05:38.076Z,74.62
2024-03-13T00:08:07.113Z,74.62
2024-03-13T00:10:33.958Z,74.72
2024-03-13T00:13:00.976Z,74.94
2024-03-13T00:15:27.838Z,74.85
2024-03-13T00:17:54.626Z,74.96
2024-03-13T00:20:21.576Z,74.93
2024-03-13T00:22:49.553Z,75.04
2024-03-13T00:25:16.630Z,75.07
2024-03-13T00:27:47.078Z,75.13
2024-03-13T00:30:14.476Z,75.08
2024-03-13T00:32:41.456Z,75.02
2024-03-13T00:35:08.625Z,75.03
2024-03-13T00:37:35.992Z,75.05
2024-03-13T00:40:04.531Z,74.93
2024-03-13T00:42:31.405Z,74.94
2024-03-13T00:44:59.135Z,75.19
2024-03-13T00:47:25.934Z,75.56
2024-03-13T00:49:55.381Z,75.55
2024-03-13T00:52:23.820Z,75.72
2024-03-13T00:54:52.272Z,75.67
2024-03-13T00:57:20.237Z,75.89
2024-03-13T00:59:47.959Z,75.74
2024-03-13T01:02:15.223Z,75.89
2024-03-13T01:04:44.340Z,75.91
2024-03-13T01:07:11.627Z,75.89
2024-03-13T01:09:39.780Z,76.00
2024-03-13T01:12:07.707Z,76.03
2024-03-13T01:14:34.870Z,76.40
2024-03-13T01:17:03.958Z,76.34
2024-03-13T01:19:37.731Z,76.33
2024-03-13T01:22:07.101Z,76.59
2024-03-13T01:24:34.604Z,76.51
2024-03-13T01:27:01.836Z,76.53
2024-03-13T01:29:28.744Z,76.24
2024-03-13T01:31:58.224Z,76.35
2024-03-13T01:34:28.508Z,76.39
2024-03-13T01:37:14.097Z,76.71
2024-03-13T01:39:41.161Z,76.79
2024-03-13T01:42:26.907Z,76.72
2024-03-13T01:45:29.670Z,76.39
2024-03-13T01:48:17.966Z,76.31
2024-03-13T01:51:07.423Z,76.32
2024-03-13T01:53:56.769Z,76.46
2024-03-13T01:56:28.699Z,76.26
2024-03-13T01:59:21.121Z,76.29
2024-03-13T02:02:06.984Z,76.27
2024-03-13T02:04:36.836Z,76.07
2024-03-13T02:07:04.893Z,76.09
2024-03-13T02:09:32.359Z,75.96
2024-03-13T02:11:59.095Z,76.17
2024-03-13T02:14:29.547Z,76.27
2024-03-13T02:16:57.317Z,76.19
2024-03-13T02:19:27.291Z,76.20
2024-03-13T02:22:01.014Z,76.37
2024-03-13T02:24:28.006Z,76.26
2024-03-13T02:26:55.081Z,76.20
2024-03-13T02:29:22.265Z,76.27
2024-03-13T02:31:49.104Z,76.57
2024-03-13T02:34:18.019Z,76.33
2024-03-13T02:36:45.147Z,76.25
2024-03-13T02:39:12.001Z,76.12
2024-03-13T02:41:39.306Z,76.07
2024-03-13T02:44:07.406Z,76.12
2024-03-13T02:46:34.142Z,76.21
2024-03-13T02:49:01.033Z,76.23
2024-03-13T02:51:28.028Z,76.27
2024-03-13T02:53:54.747Z,76.34
2024-03-13T02:56:21.541Z,76.31
2024-03-13T02:58:49.977Z,76.35
2024-03-13T03:01:17.545Z,76.44
2024-03-13T03:03:44.503Z,76.33
2024-03-13T03:06:11.567Z,76.51
2024-03-13T03:08:41.520Z,76.63
2024-03-13T03:11:08.286Z,76.74
2024-03-13T03:13:35.033Z,76.65
2024-03-13T03:16:01.973Z,76.76
2024-03-13T03:18:28.942Z,77.01
2024-03-13T03:20:55.653Z,77.11
2024-03-13T03:23:22.688Z,76.97
2024-03-13T03:25:49.379Z,77.01
2024-03-13T03:28:18.041Z,77.12
2024-03-13T03:30:47.885Z,77.20
2024-03-13T03:33:15.252Z,77.20
2024-03-13T03:35:42.753Z,77.24
2024-03-13T03:38:09.518Z,77.30
2024-03-13T03:40:37.053Z,77.40
2024-03-13T03:43:05.508Z,77.46
2024-03-13T03:45:33.252Z,77.46
2024-03-13T03:48:06.962Z,77.52
2024-03-13T03:50:38.729Z,77.57
2024-03-13T03:53:05.845Z,77.54
2024-03-13T03:55:32.649Z,77.62
2024-03-13T03:57:59.865Z,77.50
2024-03-13T04:00:27.275Z,77.51
2024-03-13T04:02:54.079Z,77.67
2024-03-13T04:05:21.618Z,77.70
2024-03-13T04:09:32.189Z,77.81
2024-03-13T04:11:58.933Z,77.76
2024-03-13T04:14:25.668Z,78.08
2024-03-13T04:16:52.531Z,77.80
2024-03-13T04:19:19.467Z,78.05
2024-03-13T04:21:46.494Z,78.06
2024-03-13T04:24:13.420Z,77.90
2024-03-13T04:26:44.603Z,78.16
2024-03-13T04:29:12.412Z,78.60
2024-03-13T04:31:41.627Z,78.37
2024-03-13T04:34:11.290Z,78.50
2024-03-13T04:36:41.720Z,78.39
2024-03-13T04:39:09.177Z,78.23
2024-03-13T04:41:40.816Z,78.20
2024-03-13T04:44:12.723Z,78.46
2024-03-13T04:46:40.003Z,78.38
2024-03-13T04:49:07.047Z,78.47
2024-03-13T04:51:34.362Z,78.53
2024-03-13T04:54:01.209Z,78.57
2024-03-13T04:56:28.383Z,78.56
2024-03-13T04:58:55.201Z,78.44
2024-03-13T05:01:22.058Z,78.39
2024-03-13T05:03:48.951Z,78.08
2024-03-13T05:06:16.517Z,78.48
2024-03-13T05:08:43.343Z,78.42
2024-03-13T05:11:10.661Z,78.59
2024-03-13T05:13:39.978Z,78.53
2024-03-13T05:16:07.869Z,78.64
2024-03-13T05:18:36.033Z,78.47
2024-03-13T05:21:03.064Z,78.72
2024-03-13T05:23:29.956Z,78.70
2024-03-13T05:26:00.912Z,78.93
2024-03-13T05:28:31.674Z,78.90
2024-03-13T05:30:58.628Z,78.90
2024-03-13T05:33:25.629Z,79.01
2024-03-13T05:35:52.516Z,79.21
2024-03-13T05:38:19.286Z,79.11
2024-03-13T05:40:46.186Z,79.38
2024-03-13T05:43:13.580Z,79.39
2024-03-13T05:45:40.471Z,79.36
2024-03-13T05:48:09.669Z,79.49
2024-03-13T05:50:36.863Z,79.57
2024-03-13T05:53:05.159Z,79.41
2024-03-13T05:55:32.925Z,79.57
2024-03-13T05:58:00.319Z,79.57
2024-03-13T06:00:27.381Z,79.58
2024-03-13T06:02:54.219Z,79.29
2024-03-13T06:05:21.062Z,79.48
2024-03-13T06:07:48.541Z,79.56
2024-03-13T06:10:15.901Z,79.59
2024-03-13T06:12:42.810Z,79.64
2024-03-13T06:15:15.752Z,79.75
2024-03-13T06:17:42.958Z,79.59
2024-03-13T06:20:14.589Z,79.61
2024-03-13T06:22:42.537Z,79.76
2024-03-13T06:25:10.730Z,79.88
2024-03-13T06:27:38.010Z,79.82
2024-03-13T06:30:06.817Z,80.00
2024-03-13T06:32:33.770Z,80.09
2024-03-13T06:35:02.092Z,79.99
2024-03-13T06:37:29.903Z,80.34
2024-03-13T06:39:59.685Z,80.25
2024-03-13T06:42:26.996Z,80.26
2024-03-13T06:44:55.509Z,80.38
2024-03-13T06:47:23.081Z,80.36
2024-03-13T06:49:49.934Z,80.44
2024-03-13T06:52:16.848Z,80.44
2024-03-13T06:54:45.538Z,80.19
2024-03-13T06:57:13.690Z,80.41
2024-03-13T06:59:40.976Z,80.40
2024-03-13T07:02:11.676Z,80.52
2024-03-13T07:05:45.022Z,80.53
2024-03-13T07:08:13.763Z,80.55
2024-03-13T07:10:40.564Z,80.31
2024-03-13T07:13:08.074Z,80.35
2024-03-13T07:15:35.534Z,80.25
2024-03-13T07:18:04.767Z,80.20
2024-03-13T07:20:31.568Z,80.17
2024-03-13T07:22:58.814Z,80.02
2024-03-13T07:25:25.627Z,80.00
2024-03-13T07:27:52.700Z,79.99
2024-03-13T07:30:21.214Z,80.02
2024-03-13T07:32:47.966Z,80.08
2024-03-13T07:35:15.359Z,80.24
2024-03-13T07:37:42.288Z,80.23
2024-03-13T07:40:12.159Z,80.10
2024-03-13T07:42:42.902Z,80.25
2024-03-13T07:45:15.586Z,80.37
2024-03-13T07:47:42.613Z,80.01
2024-03-13T07:50:10.595Z,79.88
2024-03-13T07:52:38.555Z,79.60
2024-03-13T07:55:06.398Z,79.50
2024-03-13T07:57:33.094Z,79.69
2024-03-13T07:59:59.810Z,79.65
2024-03-13T08:02:26.549Z,79.58
2024-03-13T08:04:53.367Z,79.61
2024-03-13T09:07:45.314Z,79.30
2024-03-13T09:10:14.211Z,79.37
2024-03-13T09:12:41.220Z,79.56
2024-03-13T09:15:08.650Z,79.17
2024-03-13T09:17:36.300Z,79.57
2024-03-13T09:20:06.214Z,79.66
2024-03-13T09:22:33.053Z,79.56
2024-03-13T09:25:00.037Z,79.60
2024-03-13T09:27:27.076Z,79.47
2024-03-13T09:29:53.844Z,79.47
2024-03-13T09:32:23.678Z,79.56
2024-03-13T09:34:52.005Z,79.48
2024-03-13T09:37:20.640Z,79.50
2024-03-13T09:39:47.494Z,79.47
2024-03-13T09:42:18.437Z,79.37
2024-03-13T09:44:47.772Z,79.29
2024-03-13T09:47:15.354Z,79.05
2024-03-13T09:49:46.201Z,78.82
2024-03-13T09:52:17.212Z,78.70
2024-03-13T09:54:44.885Z,78.52
2024-03-13T09:57:13.176Z,78.39
2024-03-13T09:59:40.557Z,78.26
2024-03-13T10:02:17.324Z,78.17
2024-03-13T10:04:44.252Z,78.12
2024-03-13T10:07:19.209Z,77.99
2024-03-13T10:09:48.750Z,77.91
2024-03-13T10:12:23.005Z,77.72
2024-03-13T10:14:52.820Z,77.56
2024-03-13T10:17:22.573Z,77.54
2024-03-13T10:19:54.793Z,77.52
2024-03-13T10:22:22.649Z,77.83
2024-03-13T10:24:53.191Z,77.87
2024-03-13T10:27:23.557Z,78.14
2024-03-13T10:29:53.692Z,78.19
2024-03-13T10:32:21.770Z,78.39
2024-03-13T10:34:50.641Z,78.51
2024-03-13T10:37:19.747Z,78.67
2024-03-13T10:39:46.553Z,78.63
2024-03-13T10:42:13.652Z,78.56
2024-03-13T10:44:41.610Z,78.52
2024-03-13T10:47:09.454Z,78.38
2024-03-13T10:49:36.299Z,78.26
2024-03-13T10:52:07.345Z,78.05
2024-03-13T10:54:35.758Z,77.96
2024-03-13T10:57:02.996Z,77.97
2024-03-13T10:59:30.481Z,77.81
2024-03-13T11:01:57.788Z,78.08
2024-03-13T11:04:27.947Z,78.20
2024-03-13T11:06:55.009Z,78.57
2024-03-13T11:09:24.722Z,78.86
2024-03-13T11:11:54.477Z,78.81
2024-03-13T11:14:22.068Z,78.90
2024-03-13T11:16:56.286Z,78.95
2024-03-13T11:19:30.497Z,78.87
2024-03-13T11:21:59.470Z,79.03
2024-03-13T11:24:32.404Z,78.83
2024-03-13T11:27:12.483Z,78.84
2024-03-13T11:29:46.441Z,78.96
2024-03-13T11:32:14.328Z,78.97
2024-03-13T11:34:44.076Z,78.95
2024-03-13T11:37:13.058Z,79.17
2024-03-13T11:39:41.510Z,79.22
2024-03-13T11:42:22.349Z,79.38
2024-03-13T11:44:52.284Z,79.31
2024-03-13T11:47:24.420Z,79.18
2024-03-13T11:50:01.059Z,78.95
2024-03-13T11:52:28.042Z,78.85
2024-03-13T11:54:57.788Z,78.67
2024-03-13T11:57:26.137Z,78.60
2024-03-13T11:59:55.967Z,78.65
2024-03-13T12:02:29.202Z,78.63
2024-03-13T12:05:05.665Z,78.84
2024-03-13T12:07:44.785Z,78.94
2024-03-13T12:10:19.734Z,79.20
2024-03-13T12:12:48.034Z,79.18
2024-03-13T12:15:20.379Z,79.22
2024-03-13T12:17:52.202Z,79.26
2024-03-13T12:20:20.944Z,79.27
2024-03-13T12:22:49.017Z,79.64
2024-03-13T12:25:15.991Z,79.67
2024-03-13T12:27:53.270Z,79.75
2024-03-13T12:30:22.390Z,79.64
2024-03-13T12:32:54.863Z,79.54
2024-03-13T12:35:22.247Z,79.49
2024-03-13T12:37:51.001Z,79.54
2024-03-13T12:40:18.048Z,79.51
2024-03-13T12:42:51.309Z,79.49
2024-03-13T12:45:18.840Z,79.50
2024-03-13T12:47:46.926Z,79.52
2024-03-13T12:50:19.315Z,79.33
2024-03-13T12:52:51.265Z,79.47
2024-03-13T12:55:18.654Z,79.44
2024-03-13T12:57:48.684Z,79.40
2024-03-13T13:00:21.158Z,79.56
2024-03-13T13:02:55.175Z,79.66
2024-03-13T13:05:22.689Z,79.56
2024-03-13T13:08:11.135Z,79.47
2024-03-13T13:10:41.521Z,79.38
2024-03-13T13:13:08.980Z,79.48
2024-03-13T13:15:36.835Z,79.47
2024-03-13T13:18:05.534Z,79.40
2024-03-13T13:20:34.753Z,79.37
2024-03-13T13:23:01.748Z,79.33
2024-03-13T13:25:28.489Z,79.19
2024-03-13T13:27:58.875Z,79.19
2024-03-13T13:30:26.119Z,79.31
2024-03-13T13:32:53.422Z,79.37
2024-03-13T13:35:20.774Z,79.18
2024-03-13T13:37:49.689Z,79.33
2024-03-13T13:40:17.832Z,79.32
2024-03-13T13:42:46.638Z,79.02
2024-03-13T13:45:18.110Z,79.19
2024-03-13T13:47:46.854Z,79.29
2024-03-13T13:50:17.929Z,79.14
2024-03-13T13:52:48.731Z,79.58
2024-03-13T13:55:19.727Z,79.59
2024-03-13T13:57:52.663Z,79.98
2024-03-13T14:00:25.272Z,79.68
2024-03-13T14:02:54.505Z,79.44
2024-03-13T14:05:22.228Z,79.39
2024-03-13T14:07:52.144Z,79.47
2024-03-13T14:10:20.151Z,79.37
2024-03-13T14:12:49.002Z,79.46
2024-03-13T14:15:19.449Z,79.67
2024-03-13T14:17:47.162Z,79.72
2024-03-13T14:20:19.861Z,79.69
2024-03-13T14:22:50.557Z,79.63
2024-03-13T14:25:17.287Z,79.55
2024-03-13T14:27:44.016Z,79.57
2024-03-13T14:30:11.083Z,79.63
2024-03-13T14:32:38.338Z,79.71
2024-03-13T14:35:08.565Z,79.40
2024-03-13T14:37:37.223Z,79.51
2024-03-13T14:40:12.920Z,79.20
2024-03-13T14:42:40.094Z,79.35
2024-03-13T14:45:10.475Z,79.27
2024-03-13T14:47:37.961Z,79.09
2024-03-13T14:50:05.529Z,79.18
2024-03-13T14:52:33.771Z,79.26
2024-03-13T14:55:00.532Z,79.25
2024-03-13T14:57:30.333Z,79.14
2024-03-13T14:59:57.218Z,79.24
2024-03-13T15:02:25.622Z,79.72
2024-03-13T15:04:54.091Z,79.66
2024-03-13T15:07:20.961Z,79.73
2024-03-13T15:09:47.739Z,79.82
2024-03-13T15:12:16.272Z,79.79
2024-03-13T15:14:45.133Z,79.77
2024-03-13T15:17:14.504Z,79.70
2024-03-13T15:19:45.657Z,79.51
2024-03-13T15:22:15.561Z,79.30
2024-03-13T15:24:44.379Z,79.10
2024-03-13T15:27:12.763Z,79.00
2024-03-13T15:29:41.053Z,79.08
2024-03-13T15:32:08.066Z,79.08
2024-03-13T15:34:34.921Z,78.96
2024-03-13T15:37:02.061Z,79.02
2024-03-13T15:39:29.144Z,78.84
2024-03-13T15:41:56.235Z,78.84
2024-03-13T15:44:23.623Z,78.91
2024-03-13T15:46:51.690Z,78.71
2024-03-13T15:49:18.688Z,78.85
2024-03-13T15:51:48.027Z,78.88
2024-03-13T15:54:16.232Z,78.66
2024-03-13T15:56:43.267Z,78.50
2024-03-13T15:59:12.837Z,78.78
2024-03-13T16:01:39.874Z,78.81
2024-03-13T16:04:06.896Z,78.83
2024-03-13T16:06:33.838Z,78.76
2024-03-13T16:09:12.737Z,78.68
2024-03-13T16:11:43.291Z,78.68
2024-03-13T16:14:11.770Z,78.73
2024-03-13T16:16:38.917Z,78.72
2024-03-13T16:19:06.700Z,78.68
2024-03-13T16:21:33.897Z,78.69
2024-03-13T16:24:00.755Z,78.44
2024-03-13T16:26:27.997Z,78.37
2024-03-13T16:28:55.210Z,78.34
2024-03-13T16:31:23.222Z,78.24
2024-03-13T16:33:53.136Z,78.28
2024-03-13T16:36:23.227Z,78.27
2024-03-13T16:38:50.740Z,78.25
2024-03-13T16:41:18.332Z,78.31
2024-03-13T16:43:45.020Z,78.24
2024-03-13T16:46:11.847Z,78.39
2024-03-13T16:48:40.027Z,78.59
2024-03-13T16:51:07.126Z,78.24
2024-03-13T16:53:37.252Z,78.32
2024-03-13T16:56:04.267Z,78.10
2024-03-13T16:58:31.285Z,78.20
2024-03-13T17:00:58.424Z,78.19
2024-03-13T17:03:25.374Z,78.57
2024-03-13T17:05:52.617Z,78.56
2024-03-13T17:08:19.677Z,78.58
2024-03-13T17:10:49.383Z,78.38
2024-03-13T17:13:16.707Z,78.31
2024-03-13T17:15:44.976Z,78.83
2024-03-13T17:18:12.339Z,78.41
2024-03-13T17:20:39.368Z,78.19
2024-03-13T17:23:06.221Z,78.35
2024-03-13T17:25:33.214Z,78.31
2024-03-13T17:28:00.251Z,78.28
2024-03-13T17:30:36.595Z,78.23
2024-03-13T17:33:04.427Z,78.14
2024-03-13T17:35:31.598Z,78.19
2024-03-13T17:37:58.438Z,78.23
2024-03-13T17:40:25.140Z,78.00
2024-03-13T17:42:51.900Z,77.99
2024-03-13T17:45:19.062Z,78.32
2024-03-13T17:47:48.060Z,78.31
2024-03-13T17:50:15.348Z,77.99
2024-03-13T17:52:42.135Z,78.09
2024-03-13T17:55:08.983Z,78.12
2024-03-13T17:57:35.814Z,78.12
2024-03-13T18:00:03.373Z,78.01
2024-03-13T18:02:30.234Z,78.13
2024-03-13T18:04:56.953Z,78.33
2024-03-13T18:07:28.703Z,78.16
2024-03-13T18:09:56.413Z,78.16
2024-03-13T18:12:24.577Z,78.20
2024-03-13T18:14:54.444Z,78.21
2024-03-13T18:17:23.197Z,78.36
2024-03-13T18:19:50.392Z,78.35
2024-03-13T18:22:19.493Z,78.53
2024-03-13T18:24:46.480Z,78.32
2024-03-13T18:27:13.712Z,78.19
2024-03-13T18:29:40.612Z,78.23
2024-03-13T18:32:07.443Z,78.12
2024-03-13T18:34:34.545Z,77.81
2024-03-13T18:37:01.439Z,77.94
2024-03-13T18:39:28.442Z,77.94
2024-03-13T18:41:55.604Z,78.06
2024-03-13T18:44:25.952Z,78.22
2024-03-13T18:46:53.094Z,77.99
2024-03-13T18:49:19.946Z,78.10
2024-03-13T18:51:48.353Z,78.22
2024-03-13T18:54:15.883Z,77.97
2024-03-13T18:56:42.964Z,78.17
2024-03-13T18:59:10.936Z,78.07
2024-03-13T19:01:37.796Z,78.18
2024-03-13T19:04:05.505Z,78.15
2024-03-13T19:06:34.469Z,77.94
2024-03-13T19:09:01.614Z,78.15
2024-03-13T19:11:28.789Z,77.72
2024-03-13T19:13:55.679Z,77.96
2024-03-13T19:16:22.484Z,77.98
2024-03-13T19:18:53.219Z,77.75
2024-03-13T19:21:20.765Z,77.84
2024-03-13T19:23:51.005Z,77.69
2024-03-13T19:26:17.995Z,77.66
2024-03-13T19:28:47.137Z,77.59
2024-03-13T19:31:20.085Z,77.58
2024-03-13T19:33:54.012Z,77.76
2024-03-13T19:36:20.966Z,77.59
2024-03-13T19:38:47.729Z,77.79
2024-03-13T19:41:15.336Z,77.69
2024-03-13T19:43:42.081Z,77.79
2024-03-13T19:46:09.678Z,77.93
2024-03-13T19:48:36.656Z,78.02
2024-03-13T19:51:04.323Z,78.06
2024-03-13T19:53:31.254Z,77.97
2024-03-13T19:55:58.774Z,77.91
2024-03-13T19:58:25.632Z,77.85
2024-03-13T20:00:52.459Z,77.89
2024-03-13T20:03:19.445Z,78.00
2024-03-13T20:05:46.498Z,77.71
2024-03-13T20:08:14.610Z,77.83
2024-03-13T20:10:41.488Z,77.67
2024-03-13T20:13:08.783Z,77.76
2024-03-13T20:15:36.160Z,77.74
2024-03-13T20:18:03.617Z,77.71
2024-03-13T20:20:36.080Z,77.71
2024-03-13T20:23:06.159Z,77.47
2024-03-13T20:25:33.132Z,77.54
2024-03-13T20:28:00.445Z,77.51
2024-03-13T20:30:27.369Z,77.67
2024-03-13T20:32:54.251Z,77.42
2024-03-13T20:35:21.039Z,77.47
2024-03-13T20:37:47.749Z,77.47
2024-03-13T20:40:14.725Z,77.43
2024-03-13T20:42:43.190Z,77.47
2024-03-13T20:45:10.869Z,77.36
2024-03-13T20:47:38.804Z,77.46
2024-03-13T20:50:08.450Z,77.40
2024-03-13T20:52:38.977Z,77.64
2024-03-13T20:55:07.542Z,77.53
2024-03-13T20:57:34.491Z,77.46
2024-03-13T21:00:01.552Z,77.53
2024-03-13T21:02:32.605Z,77.59
2024-03-13T21:04:59.411Z,77.65
2024-03-13T21:07:26.297Z,77.61
2024-03-13T21:09:54.528Z,77.47
2024-03-13T21:12:21.300Z,77.32
2024-03-13T21:14:48.232Z,77.23
2024-03-13T21:17:16.790Z,77.25
2024-03-13T21:19:46.904Z,77.24
2024-03-13T21:22:13.739Z,77.12
2024-03-13T21:24:41.086Z,77.10
2024-03-13T21:27:07.914Z,76.90
2024-03-13T21:29:35.348Z,77.10
2024-03-13T21:32:02.060Z,76.94
2024-03-13T21:34:34.866Z,76.99
2024-03-13T21:37:05.598Z,77.12
2024-03-13T21:39:32.450Z,77.21
2024-03-13T21:41:59.373Z,77.19
2024-03-13T21:44:26.150Z,77.08
2024-03-13T21:46:53.159Z,77.19
2024-03-13T21:49:19.936Z,77.16
2024-03-13T21:51:46.873Z,77.12
2024-03-13T21:54:13.654Z,77.21
2024-03-13T21:56:42.262Z,77.34
2024-03-13T21:59:09.749Z,77.33
2024-03-13T22:01:36.605Z,77.34
2024-03-13T22:04:03.756Z,77.21
2024-03-13T22:06:30.977Z,77.22
2024-03-13T22:08:57.869Z,77.29
2024-03-13T22:11:24.992Z,77.32
2024-03-13T22:13:53.168Z,77.30
2024-03-13T22:16:19.981Z,77.24
2024-03-13T22:18:48.460Z,77.29
2024-03-13T22:21:15.456Z,77.39
2024-03-13T22:23:42.185Z,77.37
2024-03-13T22:26:08.960Z,77.42
2024-03-13T22:28:35.797Z,77.27
2024-03-13T22:31:02.526Z,77.16
2024-03-13T22:33:29.317Z,77.32
2024-03-13T22:35:56.244Z,77.23
2024-03-13T22:38:23.014Z,77.04
2024-03-13T22:40:49.794Z,77.30
2024-03-13T22:43:16.607Z,77.16
2024-03-13T22:45:43.349Z,77.17
2024-03-13T22:48:10.320Z,77.15
2024-03-13T22:50:37.128Z,77.29
2024-03-13T22:53:04.893Z,77.21
2024-03-13T22:55:31.773Z,77.14
2024-03-13T22:57:58.587Z,77.17
2024-03-13T23:00:25.478Z,77.27
2024-03-13T23:02:53.035Z,77.10
2024-03-13T23:05:20.019Z,77.29
2024-03-13T23:07:53.247Z,77.29
2024-03-13T23:10:23.676Z,77.31
2024-03-13T23:12:50.495Z,77.28
2024-03-13T23:15:17.319Z,77.13
2024-03-13T23:17:44.476Z,77.14
2024-03-13T23:20:15.028Z,77.27
2024-03-13T23:22:42.723Z,77.08
2024-03-13T23:25:12.881Z,77.05
2024-03-13T23:27:40.141Z,76.96
2024-03-13T23:30:11.017Z,77.02
2024-03-13T23:32:38.065Z,77.10
2024-03-13T23:35:08.414Z,77.08
2024-03-13T23:37:35.880Z,77.15
2024-03-13T23:40:07.121Z,77.15
2024-03-13T23:42:44.526Z,77.16
2024-03-13T23:45:15.915Z,77.18
2024-03-13T23:47:46.333Z,77.21
2024-03-13T23:50:17.155Z,77.30
2024-03-13T23:52:46.815Z,77.33
2024-03-13T23:55:13.878Z,77.14
2024-03-13T23:57:43.745Z,77.14
